Time;durP1;ratioP1;P1;durP2;ratioP2;P2;SDS_P1;SDS_P2;PMS_P1;PMS_P2;Temp;Humidity;BMP_temperature;BMP_pressure;BME280_temperature;BME280_humidity;BME280_pressure;Samples;Min_cycle;Max_cycle;Signal;HPM_P1;HPM_P2
2021/06/16 00:01:01;;;;;;;4.95;1.40;;;16.00;99.90;;;;;;5076969;28;20063;-82
2021/06/16 00:03:28;;;;;;;5.05;1.88;;;16.00;99.90;;;;;;5077535;28;20049;-83
2021/06/16 00:05:55;;;;;;;2.90;1.67;;;16.00;99.90;;;;;;5077461;28;20155;-82
2021/06/16 00:08:22;;;;;;;5.15;1.65;;;16.10;99.90;;;;;;5077256;28;20048;-82
2021/06/16 00:10:49;;;;;;;4.57;2.10;;;16.00;99.90;;;;;;5077223;28;20059;-82
2021/06/16 00:13:16;;;;;;;6.22;1.48;;;16.10;99.90;;;;;;5077153;28;20055;-82
2021/06/16 00:15:45;;;;;;;8.73;1.60;;;16.10;99.90;;;;;;5077227;28;20048;-82
2021/06/16 00:18:12;;;;;;;5.75;1.40;;;16.10;99.90;;;;;;5076822;28;20468;-82
2021/06/16 00:20:39;;;;;;;3.53;2.03;;;16.10;99.90;;;;;;5077023;28;20056;-82
2021/06/16 00:23:06;;;;;;;5.72;1.48;;;16.00;99.90;;;;;;5077215;28;20063;-82
2021/06/16 00:25:34;;;;;;;8.85;1.52;;;16.00;99.90;;;;;;5076585;28;20048;-82
2021/06/16 00:28:01;;;;;;;2.28;1.20;;;16.00;99.90;;;;;;5076751;28;20535;-82
2021/06/16 00:30:28;;;;;;;3.60;1.20;;;16.00;99.90;;;;;;5076399;28;20342;-82
2021/06/16 00:32:56;;;;;;;3.15;1.20;;;16.00;99.90;;;;;;5076539;28;20049;-82
2021/06/16 00:35:23;;;;;;;5.13;1.13;;;16.10;99.90;;;;;;5076678;28;20056;-83
2021/06/16 00:37:51;;;;;;;;;;;16.00;99.90;;;;;;5077154;28;20058;-83
2021/06/16 00:40:19;;;;;;;;;;;16.00;99.90;;;;;;5077165;28;19930;-82
2021/06/16 00:42:46;;;;;;;;;;;16.00;99.90;;;;;;5076865;28;19931;-82
2021/06/16 00:45:13;;;;;;;;;;;16.00;99.90;;;;;;5076266;28;19934;-82
2021/06/16 00:47:40;;;;;;;;;;;16.00;99.90;;;;;;5076704;28;19920;-82
2021/06/16 00:50:09;;;;;;;;;;;16.00;99.90;;;;;;5076616;28;19921;-82
2021/06/16 00:52:36;;;;;;;;;;;16.00;99.90;;;;;;5076808;28;19920;-82
2021/06/16 00:55:02;;;;;;;;;;;16.00;99.90;;;;;;5076580;28;19924;-82
2021/06/16 00:57:29;;;;;;;;;;;16.00;99.90;;;;;;5076688;28;19920;-83
2021/06/16 00:59:58;;;;;;;;;;;16.00;99.90;;;;;;5076247;28;19920;-82
2021/06/16 01:02:25;;;;;;;;;;;15.90;99.90;;;;;;5076389;28;19970;-84
2021/06/16 01:04:51;;;;;;;;;;;15.90;99.90;;;;;;5076548;28;19920;-82
2021/06/16 01:07:20;;;;;;;;;;;15.90;99.90;;;;;;5076217;28;20256;-83
2021/06/16 01:09:49;;;;;;;;;;;15.90;99.90;;;;;;5076368;28;19920;-83
2021/06/16 01:12:18;;;;;;;;;;;15.90;99.90;;;;;;5076171;28;19920;-82
2021/06/16 01:14:48;;;;;;;;;;;15.90;99.90;;;;;;5076117;28;19981;-81
2021/06/16 01:17:15;;;;;;;;;;;15.90;99.90;;;;;;5076323;28;19942;-83
2021/06/16 01:20:07;;;;;;;;;;;15.80;99.90;;;;;;5076165;28;19930;-83
2021/06/16 01:22:38;;;;;;;;;;;15.80;99.90;;;;;;5076023;28;19920;-83
2021/06/16 01:25:06;;;;;;;;;;;15.80;99.90;;;;;;5075848;28;19931;-84
2021/06/16 01:27:35;;;;;;;;;;;15.80;99.90;;;;;;5075874;28;20352;-83
2021/06/16 01:30:02;;;;;;;;;;;15.80;99.90;;;;;;5075893;28;19931;-82
2021/06/16 01:32:29;;;;;;;;;;;15.80;99.90;;;;;;5075694;28;19981;-83
2021/06/16 01:34:55;;;;;;;;;;;15.80;99.90;;;;;;5075978;28;19930;-82
2021/06/16 01:37:22;;;;;;;;;;;15.80;99.90;;;;;;5075754;28;19920;-82
2021/06/16 01:39:49;;;;;;;;;;;15.80;99.90;;;;;;5075849;28;20321;-84
2021/06/16 01:42:16;;;;;;;;;;;15.80;99.90;;;;;;5075642;28;19920;-83
2021/06/16 01:44:44;;;;;;;;;;;15.70;99.90;;;;;;5075655;28;19925;-83
2021/06/16 01:47:11;;;;;;;;;;;15.70;99.90;;;;;;5075525;28;20328;-83
2021/06/16 01:49:38;;;;;;;;;;;15.70;99.90;;;;;;5075486;28;19931;-83
2021/06/16 01:52:05;;;;;;;;;;;15.60;99.90;;;;;;5075659;28;19920;-81
2021/06/16 01:54:32;;;;;;;;;;;15.60;99.90;;;;;;5075312;28;19943;-83
2021/06/16 01:56:59;;;;;;;;;;;15.60;99.90;;;;;;5074525;28;19920;-81
2021/06/16 01:59:26;;;;;;;;;;;15.60;99.90;;;;;;5075206;28;19931;-83
2021/06/16 02:01:54;;;;;;;;;;;15.50;99.90;;;;;;5075344;28;19920;-81
2021/06/16 02:04:21;;;;;;;;;;;15.50;99.90;;;;;;5075402;28;19938;-83
2021/06/16 02:06:48;;;;;;;;;;;15.50;99.90;;;;;;5075297;28;20006;-81
2021/06/16 02:09:15;;;;;;;;;;;15.40;99.90;;;;;;5075436;28;19920;-84
2021/06/16 02:11:42;;;;;;;;;;;15.40;99.90;;;;;;5075324;28;20328;-84
2021/06/16 02:14:10;;;;;;;;;;;15.30;99.90;;;;;;5075246;28;19925;-84
2021/06/16 02:16:39;;;;;;;;;;;15.30;99.90;;;;;;5075723;28;19920;-84
2021/06/16 02:19:08;;;;;;;;;;;15.30;99.90;;;;;;5075256;28;19931;-84
2021/06/16 02:21:35;;;;;;;;;;;15.20;99.90;;;;;;5075089;28;19920;-83
2021/06/16 02:24:02;;;;;;;;;;;15.20;99.90;;;;;;5075327;28;19921;-83
2021/06/16 02:26:29;;;;;;;;;;;15.20;99.90;;;;;;5075041;28;20363;-83
2021/06/16 02:28:55;;;;;;;;;;;15.20;99.90;;;;;;5074989;28;19927;-84
2021/06/16 02:31:22;;;;;;;;;;;15.10;99.90;;;;;;5075031;28;19920;-84
2021/06/16 02:33:50;;;;;;;;;;;15.10;99.90;;;;;;5075033;28;20257;-83
2021/06/16 02:36:18;;;;;;;;;;;15.10;99.90;;;;;;5075050;28;19920;-84
2021/06/16 02:38:45;;;;;;;;;;;15.10;99.90;;;;;;5074915;28;19928;-84
2021/06/16 02:41:13;;;;;;;;;;;15.10;99.90;;;;;;5075158;28;19931;-83
2021/06/16 02:43:39;;;;;;;;;;;15.00;99.90;;;;;;5075056;28;19924;-83
2021/06/16 02:46:06;;;;;;;;;;;15.00;99.90;;;;;;5074951;28;19939;-84
2021/06/16 02:48:33;;;;;;;;;;;15.00;99.90;;;;;;5074861;28;19930;-83
2021/06/16 02:51:00;;;;;;;;;;;15.00;99.90;;;;;;5074697;28;19920;-84
2021/06/16 02:53:28;;;;;;;;;;;14.90;99.90;;;;;;5075258;28;19930;-84
2021/06/16 02:55:56;;;;;;;;;;;14.90;99.90;;;;;;5074784;28;19921;-83
2021/06/16 02:58:22;;;;;;;;;;;14.90;99.90;;;;;;5074947;28;19927;-83
2021/06/16 03:00:52;;;;;;;;;;;14.90;99.90;;;;;;5074830;28;19920;-82
2021/06/16 03:03:19;;;;;;;;;;;14.80;99.90;;;;;;5074654;28;19931;-83
2021/06/16 03:05:46;;;;;;;;;;;14.90;99.90;;;;;;5074946;28;20344;-82
2021/06/16 03:08:13;;;;;;;;;;;14.90;99.90;;;;;;5076367;28;19920;-83
2021/06/16 03:10:41;;;;;;;;;;;14.90;99.90;;;;;;5078707;28;19921;-83
2021/06/16 03:13:08;;;;;;;;;;;15.00;99.90;;;;;;5078318;28;19931;-84
2021/06/16 03:15:35;;;;;;;;;;;15.00;99.90;;;;;;5078432;28;19924;-84
2021/06/16 03:18:02;;;;;;;;;;;15.00;99.90;;;;;;5078359;28;19920;-83
2021/06/16 03:20:30;;;;;;;;;;;15.00;99.90;;;;;;5078888;28;19920;-84
2021/06/16 03:22:56;;;;;;;;;;;15.00;99.90;;;;;;5078479;28;19956;-83
2021/06/16 03:25:23;;;;;;;;;;;15.00;99.90;;;;;;5078365;28;19946;-82
2021/06/16 03:27:52;;;;;;;;;;;15.00;99.90;;;;;;5078074;28;19920;-82
2021/06/16 03:30:19;;;;;;;;;;;15.00;99.90;;;;;;5078384;28;19970;-82
2021/06/16 03:32:46;;;;;;;;;;;14.90;99.90;;;;;;5078004;28;19935;-82
2021/06/16 03:35:13;;;;;;;;;;;14.90;99.90;;;;;;5078556;28;19943;-83
2021/06/16 03:37:39;;;;;;;;;;;14.90;99.90;;;;;;5078112;28;19950;-83
2021/06/16 03:40:07;;;;;;;;;;;14.90;99.90;;;;;;5078197;28;19921;-83
2021/06/16 03:42:34;;;;;;;;;;;14.80;99.90;;;;;;5078028;28;19931;-83
2021/06/16 03:45:03;;;;;;;;;;;14.80;99.90;;;;;;5077921;28;19930;-83
2021/06/16 03:47:30;;;;;;;;;;;14.70;99.90;;;;;;5077768;28;19920;-82
2021/06/16 03:49:57;;;;;;;;;;;14.70;99.90;;;;;;5078130;28;19920;-82
2021/06/16 03:52:24;;;;;;;;;;;14.70;99.90;;;;;;5077979;28;19920;-82
2021/06/16 03:54:52;;;;;;;;;;;14.60;99.90;;;;;;5077903;28;19920;-83
2021/06/16 03:57:19;;;;;;;;;;;14.60;99.90;;;;;;5077836;28;19931;-82
2021/06/16 03:59:46;;;;;;;;;;;14.60;99.90;;;;;;5077413;28;19932;-82
2021/06/16 04:02:14;;;;;;;;;;;14.70;99.90;;;;;;5077739;28;19920;-82
2021/06/16 04:04:41;;;;;;;;;;;14.70;99.90;;;;;;5077451;28;19930;-83
2021/06/16 04:07:07;;;;;;;;;;;14.70;99.90;;;;;;5077653;28;19920;-83
2021/06/16 04:09:34;;;;;;;;;;;14.70;99.90;;;;;;5077427;28;19920;-83
2021/06/16 04:12:01;;;;;;;;;;;14.70;99.90;;;;;;5077389;28;19932;-82
2021/06/16 04:14:28;;;;;;;;;;;14.70;99.90;;;;;;5077929;28;19930;-82
2021/06/16 04:16:56;;;;;;;;;;;14.70;99.90;;;;;;5077762;28;19926;-83
2021/06/16 04:19:24;;;;;;;;;;;14.80;99.90;;;;;;5076453;28;19931;-86
2021/06/16 04:21:51;;;;;;;;;;;14.80;99.90;;;;;;5077314;28;20341;-84
2021/06/16 04:24:18;;;;;;;;;;;14.80;99.90;;;;;;5077509;28;19920;-82
2021/06/16 04:26:44;;;;;;;;;;;14.90;99.90;;;;;;5077180;28;19943;-83
2021/06/16 04:29:12;;;;;;;4.17;1.20;;;14.90;99.90;;;;;;5076548;28;20458;-83
2021/06/16 04:31:39;;;;;;;4.18;1.40;;;14.90;99.90;;;;;;5076805;28;20057;-83
2021/06/16 04:34:05;;;;;;;;;;;14.90;99.90;;;;;;5077174;28;20048;-83
2021/06/16 04:36:34;;;;;;;;;;;14.90;99.90;;;;;;5077006;28;19920;-83
2021/06/16 04:39:01;;;;;;;;;;;14.90;99.90;;;;;;5077054;28;19920;-83
2021/06/16 04:41:27;;;;;;;;;;;15.00;99.90;;;;;;5076868;28;19920;-83
2021/06/16 04:43:54;;;;;;;;;;;15.00;99.90;;;;;;5076798;28;19920;-83
2021/06/16 04:46:21;;;;;;;;;;;15.00;99.90;;;;;;5076737;28;20357;-83
2021/06/16 04:48:48;;;;;;;;;;;15.00;99.90;;;;;;5077071;28;19920;-83
2021/06/16 04:51:15;;;;;;;;;;;15.00;99.90;;;;;;5076820;28;19920;-83
2021/06/16 04:53:43;;;;;;;;;;;15.00;99.90;;;;;;5076523;28;20374;-83
2021/06/16 04:56:10;;;;;;;3.50;1.40;;;15.10;99.90;;;;;;5075757;28;20464;-83
2021/06/16 04:58:37;;;;;;;2.95;1.10;;;15.10;99.90;;;;;;5075959;28;20052;-83
2021/06/16 05:01:04;;;;;;;4.78;1.00;;;15.10;99.90;;;;;;5075957;28;20071;-83
2021/06/16 05:03:31;;;;;;;4.25;1.00;;;15.10;99.90;;;;;;5076102;28;20040;-83
2021/06/16 05:05:58;;;;;;;;;;;15.10;99.90;;;;;;5076294;28;20044;-83
2021/06/16 05:08:25;;;;;;;;;;;15.10;99.90;;;;;;5076369;28;19938;-83
2021/06/16 05:10:53;;;;;;;;;;;15.10;99.90;;;;;;5076287;28;19920;-82
2021/06/16 05:13:23;;;;;;;;;;;15.20;99.90;;;;;;5076329;28;19931;-82
2021/06/16 05:15:50;;;;;;;;;;;15.20;99.90;;;;;;5076453;28;19920;-82
2021/06/16 05:18:17;;;;;;;;;;;15.10;99.90;;;;;;5076085;28;20348;-83
2021/06/16 05:20:44;;;;;;;;;;;15.10;99.90;;;;;;5076038;28;19920;-83
2021/06/16 05:23:11;;;;;;;;;;;15.10;99.90;;;;;;5076004;28;19920;-83
2021/06/16 05:25:37;;;;;;;;;;;15.10;99.90;;;;;;5076007;28;19930;-83
2021/06/16 05:28:06;;;;;;;;;;;15.00;99.90;;;;;;5076127;28;19920;-83
2021/06/16 05:30:33;;;;;;;;;;;15.00;99.90;;;;;;5075305;28;19920;-82
2021/06/16 05:33:00;;;;;;;;;;;14.90;99.90;;;;;;5075668;28;19931;-83
2021/06/16 05:35:27;;;;;;;;;;;14.90;99.90;;;;;;5075864;28;19924;-83
2021/06/16 05:37:53;;;;;;;;;;;14.90;99.90;;;;;;5075985;28;19921;-83
2021/06/16 05:40:20;;;;;;;;;;;14.80;99.90;;;;;;5076062;28;19920;-83
2021/06/16 05:42:47;;;;;;;;;;;14.80;99.90;;;;;;5075909;28;19928;-82
2021/06/16 05:45:15;;;;;;;;;;;14.80;99.90;;;;;;5075622;28;19920;-83
2021/06/16 05:47:42;;;;;;;;;;;14.80;99.90;;;;;;5075687;28;19921;-83
2021/06/16 05:50:10;;;;;;;;;;;14.90;99.90;;;;;;5075539;28;20268;-82
2021/06/16 05:52:37;;;;;;;;;;;15.00;99.90;;;;;;5075401;28;19927;-83
2021/06/16 05:55:04;;;;;;;;;;;15.20;99.90;;;;;;5075948;28;19930;-83
2021/06/16 05:57:31;;;;;;;;;;;15.40;99.90;;;;;;5075722;28;19920;-83
2021/06/16 05:59:57;;;;;;;;;;;15.60;99.90;;;;;;5075218;28;19924;-83
2021/06/16 06:02:26;;;;;;;;;;;15.80;99.90;;;;;;5075566;28;19920;-83
2021/06/16 06:04:52;;;;;;;;;;;16.00;99.90;;;;;;5075360;28;19920;-82
2021/06/16 06:07:21;;;;;;;;;;;16.10;99.90;;;;;;5075214;28;19920;-82
2021/06/16 06:09:48;;;;;;;;;;;16.30;99.90;;;;;;5075554;28;19931;-81
2021/06/16 06:12:15;;;;;;;;;;;16.50;99.90;;;;;;5075201;28;19920;-82
2021/06/16 06:14:42;;;;;;;;;;;16.60;99.90;;;;;;5075414;28;19920;-83
2021/06/16 06:17:09;;;;;;;;;;;16.80;99.90;;;;;;5075172;28;19925;-83
2021/06/16 06:19:37;;;;;;;;;;;16.90;99.90;;;;;;5075369;28;20348;-83
2021/06/16 06:22:04;;;;;;;;;;;17.10;99.90;;;;;;5075196;28;19931;-82
2021/06/16 06:24:31;;;;;;;;;;;17.30;99.90;;;;;;5075339;28;19921;-82
2021/06/16 06:26:57;;;;;;;;;;;17.50;99.90;;;;;;5075200;28;20352;-82
2021/06/16 06:29:26;;;;;;;;;;;17.60;99.90;;;;;;5075090;28;19932;-82
2021/06/16 06:31:53;;;;;;;;;;;17.80;99.90;;;;;;5075432;28;19963;-82
2021/06/16 06:34:20;;;;;;;2.35;1.20;;;18.10;99.90;;;;;;5074234;28;20435;-82
2021/06/16 06:36:48;;;;;;;2.95;0.70;;;18.40;99.90;;;;;;5074622;28;20048;-82
2021/06/16 06:39:15;;;;;;;2.83;0.50;;;18.70;99.90;;;;;;5074781;28;20048;-82
2021/06/16 06:41:42;;;;;;;1.33;0.75;;;19.00;99.90;;;;;;5074679;28;20048;-82
2021/06/16 06:44:09;;;;;;;2.05;0.52;;;19.40;99.90;;;;;;5078319;28;20044;-82
2021/06/16 06:46:37;;;;;;;7.43;1.08;;;20.10;99.90;;;;;;5078608;28;20052;-82
2021/06/16 06:49:04;;;;;;;3.85;0.82;;;21.30;99.90;;;;;;5078525;28;20063;-82
2021/06/16 06:51:31;;;;;;;1.05;0.55;;;22.70;96.40;;;;;;5078479;28;20483;-82
2021/06/16 06:53:59;;;;;;;3.90;0.80;;;24.00;92.50;;;;;;5078599;28;20048;-82
2021/06/16 06:56:26;;;;;;;2.60;0.50;;;24.60;80.50;;;;;;5078670;28;20483;-82
2021/06/16 06:58:53;;;;;;;4.22;0.55;;;24.60;90.10;;;;;;5078350;28;20466;-82
2021/06/16 07:01:20;;;;;;;2.42;0.32;;;24.30;91.30;;;;;;5078692;28;20058;-82
2021/06/16 07:03:48;;;;;;;1.88;0.47;;;24.20;93.40;;;;;;5078264;28;20044;-83
2021/06/16 07:06:15;;;;;;;3.45;0.73;;;24.00;89.90;;;;;;5078597;28;20055;-83
2021/06/16 07:08:42;;;;;;;0.80;0.40;;;24.30;90.70;;;;;;5078557;28;20049;-83
2021/06/16 07:11:10;;;;;;;2.65;0.57;;;25.70;90.30;;;;;;5078279;28;20063;-83
2021/06/16 07:13:37;;;;;;;1.95;0.65;;;28.20;76.40;;;;;;5077965;28;20040;-83
2021/06/16 07:16:04;;;;;;;3.60;0.77;;;30.10;58.70;;;;;;5078237;28;20055;-83
2021/06/16 07:18:32;;;;;;;2.40;0.75;;;31.70;50.90;;;;;;5077816;28;20059;-83
2021/06/16 07:20:59;;;;;;;1.95;0.75;;;33.00;49.50;;;;;;5077906;28;20067;-83
2021/06/16 07:23:26;;;;;;;2.38;0.50;;;34.40;49.10;;;;;;5077761;28;20048;-83
2021/06/16 07:25:53;;;;;;;3.40;0.50;;;35.00;45.60;;;;;;5077960;28;20055;-83
2021/06/16 07:28:21;;;;;;;21.55;1.85;;;35.40;42.90;;;;;;5077935;28;20052;-83
2021/06/16 07:30:48;;;;;;;;;;;35.50;43.20;;;;;;5078066;28;20056;-83
2021/06/16 07:33:15;;;;;;;;;;;35.80;42.60;;;;;;5078282;28;19925;-83
2021/06/16 07:35:43;;;;;;;;;;;36.90;42.20;;;;;;5078303;28;19925;-83
2021/06/16 07:38:10;;;;;;;;;;;37.30;41.30;;;;;;5077830;28;20908;-82
2021/06/16 07:40:37;;;;;;;;;;;37.60;40.00;;;;;;5078107;28;19925;-83
2021/06/16 07:43:04;;;;;;;1.55;0.63;;;37.80;39.70;;;;;;5077406;28;20410;-83
2021/06/16 07:45:33;;;;;;;1.70;0.73;;;38.30;38.20;;;;;;5077506;28;20052;-83
2021/06/16 07:48:00;;;;;;;3.22;0.57;;;38.40;39.90;;;;;;5077309;28;20412;-83
2021/06/16 07:50:27;;;;;;;2.03;0.80;;;38.30;38.70;;;;;;5077327;28;20358;-83
2021/06/16 07:52:54;;;;;;;1.23;0.80;;;38.60;39.00;;;;;;5077482;28;20044;-83
2021/06/16 07:55:21;;;;;;;2.75;0.77;;;38.60;39.10;;;;;;5077127;28;20044;-83
2021/06/16 07:57:48;;;;;;;1.10;0.60;;;38.60;39.40;;;;;;5077189;28;20049;-83
2021/06/16 08:00:17;;;;;;;1.08;0.85;;;38.70;38.90;;;;;;5076947;28;20477;-84
2021/06/16 08:02:45;;;;;;;0.80;0.70;;;39.10;37.90;;;;;;5077381;28;20048;-83
2021/06/16 08:05:13;;;;;;;1.88;0.85;;;39.30;38.60;;;;;;5059744;28;20131;-83
2021/06/16 08:07:40;;;;;;;1.10;1.00;;;39.60;38.50;;;;;;5077205;28;20052;-83
2021/06/16 08:10:07;;;;;;;1.30;0.80;;;39.70;37.30;;;;;;5077383;28;20058;-83
2021/06/16 08:12:34;;;;;;;1.38;0.90;;;40.20;37.60;;;;;;5077170;28;20044;-83
2021/06/16 08:15:03;;;;;;;1.45;0.80;;;40.30;36.90;;;;;;5076995;28;20049;-83
2021/06/16 08:17:30;;;;;;;5.85;1.10;;;40.00;36.60;;;;;;5077025;28;20380;-82
2021/06/16 08:19:58;;;;;;;2.13;0.90;;;40.20;36.40;;;;;;5077109;28;20052;-84
2021/06/16 08:22:25;;;;;;;2.55;0.70;;;40.10;36.90;;;;;;5076824;28;20464;-83
2021/06/16 08:24:52;;;;;;;;;;;40.80;36.80;;;;;;5077203;28;20384;-83
2021/06/16 08:27:19;;;;;;;;;;;41.10;35.90;;;;;;5077026;28;20465;-83
2021/06/16 08:29:46;;;;;;;;;;;40.50;35.90;;;;;;5077114;28;19921;-83
2021/06/16 08:32:12;;;;;;;;;;;40.40;36.10;;;;;;5077206;28;19927;-83
2021/06/16 08:34:39;;;;;;;;;;;39.90;36.80;;;;;;5077399;28;19932;-83
2021/06/16 08:37:07;;;;;;;;;;;39.90;37.50;;;;;;5077004;28;19943;-83
2021/06/16 08:39:34;;;;;;;;;;;39.60;37.10;;;;;;5077213;28;19931;-83
2021/06/16 08:42:01;;;;;;;3.50;0.93;;;39.00;36.70;;;;;;5076532;28;19920;-83
2021/06/16 08:44:28;;;;;;;3.40;0.70;;;38.20;37.50;;;;;;5076330;28;20452;-83
2021/06/16 08:46:56;;;;;;;1.60;1.15;;;37.70;38.10;;;;;;5076494;28;20415;-83
2021/06/16 08:49:23;;;;;;;1.38;0.57;;;36.60;39.40;;;;;;5076378;28;20075;-83
2021/06/16 08:51:50;;;;;;;1.50;0.60;;;34.20;40.70;;;;;;5076388;28;20048;-82
2021/06/16 08:54:18;;;;;;;1.65;0.70;;;32.20;43.10;;;;;;5076348;28;20055;-82
2021/06/16 08:56:45;;;;;;;2.47;0.70;;;30.30;44.70;;;;;;5076127;28;20045;-82
2021/06/16 08:59:12;;;;;;;7.93;1.70;;;28.90;47.20;;;;;;5076029;28;20052;-82
2021/06/16 09:01:39;;;;;;;1.10;0.47;;;27.60;49.30;;;;;;5076260;28;20061;-82
2021/06/16 09:04:07;;;;;;;1.17;0.65;;;26.80;50.50;;;;;;5076086;28;20066;-82
2021/06/16 09:06:34;;;;;;;3.22;0.75;;;26.10;51.80;;;;;;5075558;28;20049;-82
2021/06/16 09:09:01;;;;;;;1.60;0.68;;;25.60;52.30;;;;;;5076160;28;20049;-82
2021/06/16 09:11:31;;;;;;;1.40;0.50;;;25.20;54.40;;;;;;5075782;28;20055;-82
2021/06/16 09:14:13;;;;;;;2.17;0.60;;;24.90;54.20;;;;;;5075908;28;20059;-82
2021/06/16 09:16:40;;;;;;;1.05;0.50;;;24.60;55.00;;;;;;5073374;28;20082;-82
2021/06/16 09:19:18;;;;;;;1.88;0.70;;;24.40;55.10;;;;;;5075865;28;20048;-82
2021/06/16 09:21:44;;;;;;;;;;;24.20;56.30;;;;;;5076335;28;20070;-82
2021/06/16 09:24:11;;;;;;;;;;;24.00;56.40;;;;;;5076105;28;19920;-82
2021/06/16 09:26:40;;;;;;;;;;;23.70;56.60;;;;;;5076246;28;19920;-82
2021/06/16 09:29:06;;;;;;;;;;;23.50;58.50;;;;;;5076004;28;19920;-81
2021/06/16 09:31:37;;;;;;;;;;;23.30;57.20;;;;;;5075934;28;19931;-82
2021/06/16 09:34:07;;;;;;;;;;;23.20;58.80;;;;;;5075737;28;19982;-82
2021/06/16 09:36:34;;;;;;;;;;;23.10;57.70;;;;;;5076055;28;20356;-81
2021/06/16 09:39:08;;;;;;;;;;;23.00;61.20;;;;;;5075809;28;19926;-81
2021/06/16 09:41:35;;;;;;;;;;;22.90;61.20;;;;;;5076260;28;19978;-82
2021/06/16 09:44:04;;;;;;;;;;;22.80;60.20;;;;;;5075611;28;19920;-81
2021/06/16 09:46:31;;;;;;;;;;;22.80;62.10;;;;;;5075903;28;19920;-81
2021/06/16 09:48:57;;;;;;;;;;;22.70;63.60;;;;;;5075898;28;19920;-81
2021/06/16 09:51:25;;;;;;;;;;;22.70;66.20;;;;;;5075574;28;20347;-82
2021/06/16 09:53:55;;;;;;;;;;;22.70;65.50;;;;;;5075683;28;19931;-81
2021/06/16 09:56:22;;;;;;;;;;;22.70;67.80;;;;;;5075549;28;19920;-81
2021/06/16 09:58:49;;;;;;;;;;;22.60;68.00;;;;;;5075299;28;19927;-81
2021/06/16 10:01:17;;;;;;;;;;;22.40;75.10;;;;;;5075496;28;20321;-81
2021/06/16 10:03:44;;;;;;;;;;;22.50;80.90;;;;;;5075287;28;19920;-81
2021/06/16 10:06:11;;;;;;;;;;;22.40;83.40;;;;;;5075418;28;20438;-81
2021/06/16 10:08:39;;;;;;;;;;;22.40;90.10;;;;;;5075465;28;19931;-81
2021/06/16 10:11:06;;;;;;;;;;;22.40;90.20;;;;;;5075325;28;20368;-81
2021/06/16 10:13:33;;;;;;;;;;;22.40;91.70;;;;;;5075347;28;19920;-81
2021/06/16 10:16:00;;;;;;;;;;;22.40;95.00;;;;;;5075683;28;19924;-82
2021/06/16 10:18:29;;;;;;;;;;;22.30;95.00;;;;;;5074197;28;19978;-81
2021/06/16 10:20:56;;;;;;;;;;;22.30;95.10;;;;;;5075376;28;20264;-81
2021/06/16 10:23:23;;;;;;;;;;;22.30;96.70;;;;;;5075058;28;19920;-82
2021/06/16 10:25:50;;;;;;;;;;;22.30;98.30;;;;;;5075195;28;19924;-82
2021/06/16 10:28:17;;;;;;;;;;;22.30;97.30;;;;;;5075306;28;20260;-82
2021/06/16 10:30:44;;;;;;;;;;;22.30;97.40;;;;;;5075133;28;19931;-82
2021/06/16 10:33:27;;;;;;;;;;;22.30;97.80;;;;;;5074422;28;19985;-81
2021/06/16 10:36:07;;;;;;;;;;;22.40;99.10;;;;;;5075022;28;19920;-82
2021/06/16 10:38:34;;;;;;;;;;;22.50;99.90;;;;;;5075049;28;19920;-81
2021/06/16 10:41:01;;;;;;;;;;;22.50;99.50;;;;;;5075005;28;19920;-81
2021/06/16 10:43:29;;;;;;;;;;;22.50;97.60;;;;;;5074906;28;19920;-81
2021/06/16 10:46:06;;;;;;;;;;;22.60;99.80;;;;;;5074902;28;19921;-82
2021/06/16 10:48:46;;;;;;;;;;;22.70;99.60;;;;;;5075480;28;20007;-81
2021/06/16 10:51:26;;;;;;;;;;;22.70;99.90;;;;;;5075008;28;19920;-82
2021/06/16 10:54:11;;;;;;;;;;;22.90;99.90;;;;;;5075016;28;19926;-81
2021/06/16 10:56:41;;;;;;;;;;;23.00;99.90;;;;;;5074807;28;19920;-82
2021/06/16 10:59:08;;;;;;;;;;;23.10;99.90;;;;;;5074742;28;19946;-81
2021/06/16 11:01:45;;;;;;;;;;;23.10;99.70;;;;;;5074933;28;19930;-81
2021/06/16 11:04:21;;;;;;;;;;;23.10;99.90;;;;;;5074842;28;19920;-81
2021/06/16 11:06:50;;;;;;;;;;;23.10;99.90;;;;;;5074369;28;19920;-81
2021/06/16 11:09:16;;;;;;;;;;;23.20;99.90;;;;;;5074795;28;19948;-82
2021/06/16 11:12:13;;;;;;;;;;;23.40;99.90;;;;;;5074572;28;19921;-81
2021/06/16 11:14:47;;;;;;;;;;;23.50;99.60;;;;;;5033141;28;19932;-81
2021/06/16 11:17:33;;;;;;;;;;;23.60;98.90;;;;;;5033160;28;20364;-82
2021/06/16 11:20:00;;;;;;;;;;;23.60;99.90;;;;;;5033095;28;20280;-82
2021/06/16 11:22:35;;;;;;;;;;;23.60;99.50;;;;;;5032959;28;19979;-82
2021/06/16 11:25:03;;;;;;;;;;;23.80;99.80;;;;;;5032819;28;19921;-81
2021/06/16 11:27:48;;;;;;;;;;;24.00;99.50;;;;;;5032887;28;19921;-81
2021/06/16 11:30:15;;;;;;;;;;;24.10;98.60;;;;;;5036238;28;19921;-81
2021/06/16 11:32:41;;;;;;;;;;;24.10;98.30;;;;;;5036510;28;19921;-81
2021/06/16 11:35:08;;;;;;;;;;;24.00;98.30;;;;;;5036461;28;19921;-81
2021/06/16 11:37:54;;;;;;;;;;;23.90;99.50;;;;;;5036411;28;19932;-82
2021/06/16 11:40:22;;;;;;;;;;;23.90;99.80;;;;;;5036556;28;19932;-81
2021/06/16 11:42:49;;;;;;;;;;;23.80;99.90;;;;;;5036480;28;19925;-81
2021/06/16 11:45:15;;;;;;;;;;;23.90;99.90;;;;;;5036605;28;19921;-82
2021/06/16 11:47:42;;;;;;;;;;;23.90;99.90;;;;;;5037989;28;20369;-82
2021/06/16 11:50:10;;;;;;;;;;;23.70;99.70;;;;;;5077824;28;19924;-81
2021/06/16 11:52:37;;;;;;;;;;;23.70;99.90;;;;;;5077717;28;20333;-80
2021/06/16 11:55:04;;;;;;;;;;;23.70;99.90;;;;;;5077645;28;19920;-80
2021/06/16 11:57:32;;;;;;;;;;;23.80;99.90;;;;;;5077869;28;19924;-79
2021/06/16 11:59:59;;;;;;;;;;;23.90;99.90;;;;;;5077496;28;19931;-80
2021/06/16 12:02:26;;;;;;;;;;;24.00;99.90;;;;;;5077962;28;19921;-80
2021/06/16 12:04:53;;;;;;;;;;;24.10;99.90;;;;;;5077430;28;19920;-79
2021/06/16 12:07:21;;;;;;;;;;;24.00;99.20;;;;;;5077820;28;19942;-80
2021/06/16 12:09:48;;;;;;;;;;;24.10;99.90;;;;;;5077793;28;19920;-80
2021/06/16 12:12:14;;;;;;;;;;;24.20;99.90;;;;;;5076758;28;20256;-80
2021/06/16 12:14:43;;;;;;;;;;;24.30;99.90;;;;;;5076074;28;19924;-80
2021/06/16 12:17:10;;;;;;;;;;;24.20;99.90;;;;;;5077712;28;19920;-80
2021/06/16 12:19:37;;;;;;;;;;;24.20;99.90;;;;;;5077111;28;19967;-80
2021/06/16 12:22:04;;;;;;;;;;;24.10;99.90;;;;;;5077003;28;20248;-80
2021/06/16 12:24:31;;;;;;;;;;;23.90;99.90;;;;;;5077197;28;19920;-80
2021/06/16 12:26:58;;;;;;;;;;;23.90;99.90;;;;;;5077478;28;19930;-79
2021/06/16 12:29:25;;;;;;;;;;;23.90;99.90;;;;;;5077168;28;19931;-80
2021/06/16 12:31:55;;;;;;;;;;;23.90;99.90;;;;;;5077241;28;19920;-80
2021/06/16 12:34:30;;;;;;;;;;;23.90;99.90;;;;;;5076929;28;20249;-80
2021/06/16 12:37:07;;;;;;;;;;;24.00;99.90;;;;;;5077288;28;20365;-79
2021/06/16 12:39:34;;;;;;;;;;;23.90;99.90;;;;;;5076429;28;20259;-80
2021/06/16 12:42:05;;;;;;;;;;;23.90;99.90;;;;;;5076510;28;19931;-80
2021/06/16 12:44:38;;;;;;;;;;;23.80;99.90;;;;;;5077108;28;19986;-79
2021/06/16 12:47:06;;;;;;;;;;;23.70;99.90;;;;;;5077086;28;19928;-80
2021/06/16 12:49:35;;;;;;;;;;;23.80;99.90;;;;;;5077035;28;19920;-79
2021/06/16 12:52:04;;;;;;;;;;;23.70;99.90;;;;;;5076820;28;19924;-80
2021/06/16 12:54:31;;;;;;;;;;;23.80;99.90;;;;;;5076753;28;19921;-80
2021/06/16 12:57:05;;;;;;;;;;;23.70;99.90;;;;;;5076518;28;19970;-80
2021/06/16 12:59:33;;;;;;;;;;;23.70;99.90;;;;;;5076629;28;19920;-80
2021/06/16 13:02:00;;;;;;;;;;;23.70;99.90;;;;;;5077012;28;19947;-79
2021/06/16 13:07:20;;;;;;;;;;;23.60;99.90;;;;;;5125882;27;19913;-80
2021/06/16 13:09:59;;;;;;;;;;;23.60;99.90;;;;;;5092526;28;19928;-80
2021/06/16 13:12:26;;;;;;;;;;;23.50;99.90;;;;;;5092819;28;19934;-80
2021/06/16 13:14:59;;;;;;;;;;;23.50;99.90;;;;;;5092776;28;19924;-80
2021/06/16 13:17:26;;;;;;;;;;;23.40;99.90;;;;;;5092529;28;19935;-80
2021/06/16 13:19:56;;;;;;;;;;;23.40;99.90;;;;;;5092380;28;19924;-80
2021/06/16 13:22:32;;;;;;;;;;;23.40;99.90;;;;;;5092348;28;19924;-80
2021/06/16 13:25:00;;;;;;;;;;;23.40;99.90;;;;;;5092604;28;19978;-79
2021/06/16 13:27:27;;;;;;;;;;;23.50;99.90;;;;;;5092329;28;20020;-79
2021/06/16 13:29:58;;;;;;;;;;;23.60;99.90;;;;;;5092431;28;19924;-80
2021/06/16 13:32:25;;;;;;;;;;;23.60;99.90;;;;;;5092570;28;19924;-80
2021/06/16 13:34:52;;;;;;;;;;;23.60;99.90;;;;;;5092052;28;19929;-79
2021/06/16 13:37:18;;;;;;;;;;;23.60;99.90;;;;;;5092230;28;20341;-80
2021/06/16 13:39:47;;;;;;;;;;;23.70;99.90;;;;;;5092031;28;19935;-80
2021/06/16 13:42:19;;;;;;;;;;;23.70;99.90;;;;;;5092237;28;19943;-80
2021/06/16 13:44:45;;;;;;;;;;;23.70;99.90;;;;;;5092203;28;20352;-80
2021/06/16 13:47:12;;;;;;;;;;;23.70;99.90;;;;;;5091436;28;19934;-80
2021/06/16 13:49:39;;;;;;;;;;;23.70;99.90;;;;;;5091934;28;19928;-79
2021/06/16 13:52:06;;;;;;;;;;;23.70;99.90;;;;;;5092090;28;19925;-80
2021/06/16 13:54:33;;;;;;;;;;;23.60;99.90;;;;;;5091890;28;19924;-79
2021/06/16 13:57:01;;;;;;;;;;;23.50;99.90;;;;;;5091826;28;19924;-80
2021/06/16 13:59:28;;;;;;;1.10;0.20;;;23.60;99.90;;;;;;5091470;28;20035;-80
2021/06/16 14:01:55;;;;;;;1.88;0.38;;;23.60;99.90;;;;;;5091170;28;20045;-80